Time;durP1;ratioP1;P1;durP2;ratioP2;P2;SDS_P1;SDS_P2;PMS_P1;PMS_P2;Temp;Humidity;BMP_temperature;BMP_pressure;BME280_temperature;BME280_humidity;BME280_pressure;Samples;Min_cycle;Max_cycle;Signal;HPM_P1;HPM_P2
2024/01/09 06:55:00;;;;;;;4.03;2.88;;;;;;;;;;10558997;27;20434;-82
2024/01/09 08:02:06;;;;;;;5.65;3.72;;;;;;;;;;10556864;28;20081;-83
2024/01/09 08:07:07;;;;;;;5.75;4.13;;;;;;;;;;10551628;28;20028;-81
2024/01/09 08:12:08;;;;;;;7.43;4.68;;;;;;;;;;10555554;28;20040;-81
2024/01/09 08:17:11;;;;;;;7.18;4.80;;;;;;;;;;10550040;28;20036;-82
2024/01/09 08:22:18;;;;;;;8.13;6.03;;;;;;;;;;10544684;28;20044;-82
2024/01/09 08:27:21;;;;;;;6.93;4.40;;;;;;;;;;10558609;28;20028;-82
2024/01/09 08:32:22;;;;;;;5.97;4.60;;;;;;;;;;10539902;28;20119;-82
2024/01/09 08:37:23;;;;;;;;;;;;;;;;;;10539469;28;20032;-83
2024/01/09 08:42:25;;;;;;;7.63;4.97;;;;;;;;;;10534453;28;19930;-83
2024/01/09 08:47:43;;;;;;;8.27;4.97;;;;;;;;;;10536185;28;20123;-84
2024/01/09 08:53:03;;;;;;;6.85;4.28;;;;;;;;;;10554652;28;20105;-84
2024/01/09 08:58:06;;;;;;;7.45;5.20;;;;;;;;;;10538873;28;20043;-83
2024/01/09 09:03:07;;;;;;;6.65;4.63;;;;;;;;;;10534623;28;20566;-83
2024/01/09 09:08:08;;;;;;;6.28;4.47;;;;;;;;;;10534787;28;20181;-83
2024/01/09 09:13:09;;;;;;;5.85;3.80;;;;;;;;;;10537437;28;20032;-83
2024/01/09 09:18:12;;;;;;;5.85;3.80;;;;;;;;;;10535752;28;20092;-83
2024/01/09 09:23:13;;;;;;;6.88;4.90;;;;;;;;;;10536437;28;20446;-83
2024/01/09 09:28:14;;;;;;;;;;;;;;;;;;10537124;28;20040;-81
2024/01/09 09:33:15;;;;;;;5.20;3.60;;;;;;;;;;10538893;28;19907;-82
2024/01/09 09:38:16;;;;;;;6.30;4.05;;;;;;;;;;10538670;28;20038;-81
2024/01/09 09:43:22;;;;;;;5.97;4.05;;;;;;;;;;10539159;28;20042;-82
2024/01/09 09:48:24;;;;;;;7.63;4.43;;;;;;;;;;10539748;28;20032;-82
2024/01/09 09:53:30;;;;;;;6.65;4.10;;;;;;;;;;10536465;28;20032;-81
2024/01/09 09:58:31;;;;;;;8.07;4.85;;;;;;;;;;10539178;28;20032;-82
2024/01/09 10:03:50;;;;;;;17.83;11.60;;;;;;;;;;10536949;28;20109;-83
2024/01/09 10:08:53;;;;;;;5.78;3.88;;;;;;;;;;10535848;28;20040;-84
2024/01/09 10:13:56;;;;;;;7.30;4.32;;;;;;;;;;10533629;28;20032;-82
2024/01/09 10:18:57;;;;;;;5.70;3.85;;;;;;;;;;10535187;28;20058;-81
2024/01/09 10:23:58;;;;;;;6.25;3.35;;;;;;;;;;10534112;28;20036;-82
2024/01/09 10:28:59;;;;;;;6.55;4.50;;;;;;;;;;10540615;28;20050;-82
2024/01/09 10:34:00;;;;;;;7.05;4.07;;;;;;;;;;10535239;28;20036;-83
2024/01/09 10:39:12;;;;;;;6.93;4.32;;;;;;;;;;10534842;28;20059;-83
2024/01/09 10:44:36;;;;;;;7.05;5.15;;;;;;;;;;10543606;28;20040;-82
2024/01/09 10:49:40;;;;;;;7.35;4.20;;;;;;;;;;10534367;28;20051;-83
2024/01/09 10:54:44;;;;;;;8.27;4.20;;;;;;;;;;10534167;28;20032;-82
2024/01/09 10:59:45;;;;;;;7.03;4.75;;;;;;;;;;10535524;28;20036;-83
2024/01/09 11:04:46;;;;;;;5.95;3.70;;;;;;;;;;10535127;28;20040;-80
2024/01/09 11:09:48;;;;;;;6.43;4.55;;;;;;;;;;10552575;28;20089;-82
2024/01/09 11:14:51;;;;;;;7.05;4.70;;;;;;;;;;10534892;28;20028;-80
2024/01/09 11:19:52;;;;;;;6.88;3.38;;;;;;;;;;10531689;28;20032;-82
2024/01/09 11:24:54;;;;;;;5.63;3.67;;;;;;;;;;10532384;28;20127;-80
2024/01/09 11:29:56;;;;;;;;;;;;;;;;;;10566396;28;20040;-80
2024/01/09 11:35:13;;;;;;;6.50;4.57;;;;;;;;;;10543076;28;19904;-80
2024/01/09 11:40:16;;;;;;;8.02;4.15;;;;;;;;;;10541067;28;20046;-80
2024/01/09 11:45:24;;;;;;;5.25;3.67;;;;;;;;;;10539568;28;20062;-82
2024/01/09 11:50:25;;;;;;;4.97;3.58;;;;;;;;;;10537166;28;20028;-82
2024/01/09 11:55:27;;;;;;;5.68;3.63;;;;;;;;;;10537963;28;20032;-81
2024/01/09 12:00:28;;;;;;;5.30;3.28;;;;;;;;;;10537700;28;20142;-81
2024/01/09 12:05:29;;;;;;;6.25;2.88;;;;;;;;;;10536072;28;20071;-81
2024/01/09 12:10:35;;;;;;;6.28;2.85;;;;;;;;;;10536984;28;20074;-81
2024/01/09 12:15:41;;;;;;;5.72;3.15;;;;;;;;;;10539363;28;20152;-82
2024/01/09 12:20:42;;;;;;;6.63;3.28;;;;;;;;;;10538608;28;20104;-81
2024/01/09 12:25:47;;;;;;;4.65;3.00;;;;;;;;;;10535971;28;20054;-81
2024/01/09 12:30:49;;;;;;;4.72;2.83;;;;;;;;;;10555422;28;20048;-81
2024/01/09 12:35:50;;;;;;;5.20;3.30;;;;;;;;;;10535802;28;20055;-83
2024/01/09 12:41:01;;;;;;;6.07;3.20;;;;;;;;;;10536935;28;20439;-80
2024/01/09 12:46:05;;;;;;;5.22;2.50;;;;;;;;;;10535578;28;20130;-83
2024/01/09 12:51:06;;;;;;;5.75;3.30;;;;;;;;;;10541335;28;20078;-83
2024/01/09 12:56:14;;;;;;;5.35;3.70;;;;;;;;;;10538791;28;20385;-82
2024/01/09 13:12:17;;;;;;;7.78;4.28;;;;;;;;;;10513837;28;20037;-82
2024/01/09 13:17:40;;;;;;;4.20;2.80;;;;;;;;;;10552830;28;20031;-82
2024/01/09 13:22:48;;;;;;;5.28;2.80;;;;;;;;;;10600397;28;20445;-84
2024/01/09 13:27:49;;;;;;;6.97;3.85;;;;;;;;;;10592644;28;20044;-85
2024/01/09 13:32:57;;;;;;;;;;;;;;;;;;10588267;28;20042;-85
2024/01/09 13:37:58;;;;;;;4.18;2.33;;;;;;;;;;10586318;28;20372;-83
2024/01/09 13:43:00;;;;;;;5.88;3.53;;;;;;;;;;10582851;28;20043;-84
2024/01/09 13:48:02;;;;;;;10.93;4.20;;;;;;;;;;10598185;28;20059;-83
2024/01/09 13:53:03;;;;;;;;;;;;;;;;;;10580742;28;20050;-82
2024/01/09 13:58:04;;;;;;;5.40;3.77;;;;;;;;;;10593619;28;19961;-82
2024/01/09 14:03:05;;;;;;;6.05;4.07;;;;;;;;;;10604467;28;20035;-80
2024/01/09 14:08:07;;;;;;;5.70;3.80;;;;;;;;;;10580594;28;20487;-84
2024/01/09 14:13:09;;;;;;;5.50;3.20;;;;;;;;;;10556493;28;20480;-84
2024/01/09 14:18:10;;;;;;;5.25;3.17;;;;;;;;;;10556066;28;20032;-82
2024/01/09 14:23:11;;;;;;;4.90;2.95;;;;;;;;;;10537669;28;20062;-84
2024/01/09 14:28:12;;;;;;;;;;;;;;;;;;10542691;28;20056;-83
2024/01/09 14:33:19;;;;;;;7.37;4.73;;;;;;;;;;10540053;28;19910;-85
2024/01/09 14:38:22;;;;;;;6.40;4.13;;;;;;;;;;10539189;28;20036;-82
2024/01/09 14:43:25;;;;;;;5.43;3.00;;;;;;;;;;10539295;28;20557;-82
2024/01/09 14:48:26;;;;;;;8.15;4.95;;;;;;;;;;10540193;28;20363;-85
2024/01/09 14:53:28;;;;;;;6.78;4.05;;;;;;;;;;10556775;28;20085;-83
2024/01/09 14:58:29;;;;;;;6.13;3.88;;;;;;;;;;10538864;28;20056;-83
2024/01/09 15:03:30;;;;;;;4.60;2.72;;;;;;;;;;10537914;28;20209;-83
2024/01/09 15:08:31;;;;;;;6.63;3.72;;;;;;;;;;10540647;28;20040;-84
2024/01/09 15:13:32;;;;;;;8.43;4.13;;;;;;;;;;10545045;28;20035;-82
2024/01/09 15:18:33;;;;;;;7.55;4.28;;;;;;;;;;10547969;28;20032;-84
2024/01/09 15:23:35;;;;;;;8.05;3.40;;;;;;;;;;10546100;28;20437;-84
2024/01/09 15:28:36;;;;;;;7.25;4.53;;;;;;;;;;10545249;28;20047;-84
2024/01/09 15:33:37;;;;;;;6.53;3.58;;;;;;;;;;10549430;28;20116;-83
2024/01/09 15:38:39;;;;;;;8.25;3.95;;;;;;;;;;10570934;28;20032;-82
2024/01/09 15:43:40;;;;;;;9.65;4.72;;;;;;;;;;10560839;28;20055;-80
2024/01/09 15:48:41;;;;;;;6.85;3.70;;;;;;;;;;10543644;28;20070;-83
2024/01/09 15:53:42;;;;;;;6.78;3.63;;;;;;;;;;10553663;28;20410;-83
2024/01/09 15:58:43;;;;;;;4.20;2.83;;;;;;;;;;10545401;28;20036;-86
2024/01/09 16:03:46;;;;;;;8.82;5.13;;;;;;;;;;10543424;28;20503;-85
2024/01/09 16:08:51;;;;;;;7.93;3.97;;;;;;;;;;10541192;28;20050;-82
2024/01/09 16:13:52;;;;;;;6.32;4.00;;;;;;;;;;10539705;28;20063;-82
2024/01/09 16:18:53;;;;;;;8.15;3.70;;;;;;;;;;10538205;28;20089;-82
2024/01/09 16:23:54;;;;;;;6.25;3.05;;;;;;;;;;10542013;28;20032;-82
2024/01/09 16:28:55;;;;;;;6.13;3.53;;;;;;;;;;10572192;28;20028;-83
2024/01/09 16:33:59;;;;;;;8.90;5.22;;;;;;;;;;10554255;28;20370;-83
2024/01/09 16:39:00;;;;;;;6.50;3.58;;;;;;;;;;10535918;28;20119;-84
2024/01/09 16:44:02;;;;;;;5.78;3.80;;;;;;;;;;10535286;28;20057;-84
2024/01/09 16:49:03;;;;;;;6.00;3.75;;;;;;;;;;10540211;28;20039;-85
2024/01/09 16:54:04;;;;;;;6.60;4.15;;;;;;;;;;10551207;28;20031;-83
2024/01/09 16:59:06;;;;;;;8.35;4.00;;;;;;;;;;10568295;28;20036;-83
2024/01/09 17:04:09;;;;;;;8.30;4.40;;;;;;;;;;10559904;28;20028;-84
2024/01/09 17:09:11;;;;;;;6.90;3.30;;;;;;;;;;10526901;28;20043;-85
2024/01/09 17:14:12;;;;;;;6.22;3.80;;;;;;;;;;10553033;28;20032;-84
2024/01/09 17:19:14;;;;;;;5.43;3.40;;;;;;;;;;10551982;28;20028;-86
2024/01/09 17:24:15;;;;;;;;;;;;;;;;;;10547948;28;20043;-87
2024/01/09 17:29:17;;;;;;;9.68;4.97;;;;;;;;;;10552647;28;19935;-86
2024/01/09 17:34:19;;;;;;;8.80;5.50;;;;;;;;;;10552160;28;20079;-85
2024/01/09 17:39:20;;;;;;;9.35;5.13;;;;;;;;;;10553507;28;20180;-85
2024/01/09 17:44:26;;;;;;;;;;;;;;;;;;10560165;28;20032;-84
2024/01/09 17:49:27;;;;;;;9.18;5.32;;;;;;;;;;10558775;28;19904;-86
2024/01/09 17:54:34;;;;;;;9.10;4.85;;;;;;;;;;10560150;28;20126;-85
2024/01/09 17:59:38;;;;;;;7.75;4.78;;;;;;;;;;10560660;28;20103;-87
2024/01/09 18:04:42;;;;;;;6.80;4.40;;;;;;;;;;10561706;28;20040;-85
2024/01/09 18:09:43;;;;;;;7.28;4.88;;;;;;;;;;10553586;28;20040;-86
2024/01/09 18:14:44;;;;;;;8.63;5.55;;;;;;;;;;10554268;28;20028;-87
2024/01/09 18:19:52;;;;;;;6.82;4.55;;;;;;;;;;10552194;28;20032;-86
2024/01/09 18:24:53;;;;;;;6.63;4.30;;;;;;;;;;10548390;28;20075;-87
2024/01/09 18:29:54;;;;;;;8.52;5.47;;;;;;;;;;10547748;28;20032;-86
2024/01/09 18:34:55;;;;;;;8.00;5.05;;;;;;;;;;10549684;28;20032;-88
2024/01/09 18:40:05;;;;;;;8.35;4.63;;;;;;;;;;10551031;28;20031;-86
2024/01/09 18:45:12;;;;;;;5.68;4.35;;;;;;;;;;10548314;28;20032;-87
2024/01/09 18:50:16;;;;;;;8.82;6.18;;;;;;;;;;10551462;28;20031;-85
2024/01/09 18:55:19;;;;;;;7.60;4.85;;;;;;;;;;10548193;28;20122;-87
2024/01/09 19:00:20;;;;;;;7.47;4.95;;;;;;;;;;10547070;28;20036;-87
2024/01/09 19:05:33;;;;;;;8.30;5.65;;;;;;;;;;10547240;28;20059;-87
2024/01/09 19:10:34;;;;;;;7.10;4.85;;;;;;;;;;10453082;23;20064;-83
2024/01/09 19:21:26;;;;;;;6.33;4.50;;;;;;;;;;10380705;28;20029;-84
2024/01/09 19:26:32;;;;;;;6.60;4.25;;;;;;;;;;10389051;28;20049;-83
2024/01/09 19:31:33;;;;;;;6.97;4.45;;;;;;;;;;10388797;28;20060;-83
2024/01/09 19:36:34;;;;;;;7.28;4.78;;;;;;;;;;10388951;28;20030;-83
2024/01/09 19:41:35;;;;;;;9.63;5.63;;;;;;;;;;10383351;28;20053;-83
2024/01/09 19:46:43;;;;;;;6.32;4.57;;;;;;;;;;10387381;28;20093;-82
2024/01/09 19:51:52;;;;;;;6.38;4.32;;;;;;;;;;10393643;28;20025;-84
2024/01/09 19:56:53;;;;;;;8.05;5.82;;;;;;;;;;10388395;28;20026;-82
2024/01/09 20:01:55;;;;;;;7.05;4.70;;;;;;;;;;10387674;28;20032;-83
2024/01/09 20:06:56;;;;;;;6.57;4.75;;;;;;;;;;10379463;28;20038;-83
